Time;durP1;ratioP1;P1;durP2;ratioP2;P2;SDS_P1;SDS_P2;PMS_P1;PMS_P2;Temp;Humidity;BMP_temperature;BMP_pressure;BME280_temperature;BME280_humidity;BME280_pressure;Samples;Min_cycle;Max_cycle;Signal;HPM_P1;HPM_P2
2022/11/30 00:00:36;;;;;;;;;31.67;25.67;;;;;7.67;100.00;102021.84;5009533;28;45436;-80
2022/11/30 00:03:02;;;;;;;;;38.33;29.00;;;;;7.73;100.00;102021.47;5015147;28;45368;-80
2022/11/30 00:05:28;;;;;;;;;28.33;26.00;;;;;7.68;100.00;102031.69;5016106;28;45499;-81
2022/11/30 00:07:53;;;;;;;;;31.33;26.67;;;;;7.69;100.00;102021.75;5029905;28;47154;-80
2022/11/30 00:10:22;;;;;;;;;39.67;33.67;;;;;7.77;100.00;102020.28;5013632;28;45335;-81
2022/11/30 00:12:49;;;;;;;;;36.67;33.33;;;;;7.66;100.00;102012.00;5018444;28;45391;-80
2022/11/30 00:15:16;;;;;;;;;40.33;30.00;;;;;7.68;100.00;102007.34;5014867;28;45414;-80
2022/11/30 00:17:45;;;;;;;;;33.33;31.00;;;;;7.69;100.00;102002.81;5024794;28;47906;-80
2022/11/30 00:20:13;;;;;;;;;37.67;34.00;;;;;7.68;100.00;102007.34;5017676;28;46222;-80
2022/11/30 00:22:38;;;;;;;;;43.67;32.33;;;;;7.61;100.00;102014.13;5009115;28;45521;-80
2022/11/30 00:25:04;;;;;;;;;30.00;30.00;;;;;7.64;100.00;102008.53;5021179;28;45432;-80
2022/11/30 00:27:33;;;;;;;;;37.00;29.00;;;;;7.67;100.00;102007.47;5025323;28;47176;-81
2022/11/30 00:29:58;;;;;;;;;29.00;27.00;;;;;7.66;100.00;101989.50;5015394;28;45362;-81
2022/11/30 00:32:25;;;;;;;;;34.00;25.33;;;;;7.77;100.00;101997.75;5009050;28;45364;-81
2022/11/30 00:34:50;;;;;;;;;36.00;30.00;;;;;7.75;100.00;101991.56;5016335;28;45403;-81
2022/11/30 00:37:16;;;;;;;;;27.67;25.00;;;;;7.85;100.00;102003.56;5018692;28;47054;-81
2022/11/30 00:39:41;;;;;;;;;32.67;29.00;;;;;7.83;100.00;102003.66;5012418;28;45389;-80
2022/11/30 00:42:06;;;;;;;;;31.33;27.67;;;;;7.79;100.00;102002.13;5021476;28;45374;-81
2022/11/30 00:44:32;;;;;;;;;23.67;21.33;;;;;7.65;100.00;101985.91;5021075;28;45618;-82
2022/11/30 00:46:57;;;;;;;;;35.67;30.00;;;;;7.69;100.00;101995.56;5023876;28;46207;-81
2022/11/30 00:49:22;;;;;;;;;33.67;32.00;;;;;7.66;100.00;101994.91;5012991;28;45424;-81
2022/11/30 00:51:48;;;;;;;;;48.33;38.33;;;;;7.62;100.00;101987.94;5009768;28;45496;-81
2022/11/30 00:54:13;;;;;;;;;46.00;36.33;;;;;7.69;100.00;101987.44;5015117;28;45248;-82
2022/11/30 00:56:38;;;;;;;;;35.00;29.33;;;;;7.72;100.00;101989.09;5006476;28;47171;-80
2022/11/30 00:59:04;;;;;;;;;38.33;34.00;;;;;7.72;100.00;101989.97;5016258;28;45387;-81
2022/11/30 01:01:30;;;;;;;;;34.33;29.67;;;;;7.70;100.00;101981.06;5018771;28;45373;-80
2022/11/30 01:03:56;;;;;;;;;33.00;28.00;;;;;7.76;100.00;101999.59;5010823;28;45494;-81
2022/11/30 01:06:21;;;;;;;;;27.00;19.00;;;;;7.73;100.00;101991.72;5021504;28;47940;-81
2022/11/30 01:08:47;;;;;;;;;31.00;22.00;;;;;7.73;100.00;101996.25;5021469;28;45530;-81
2022/11/30 01:11:30;;;;;;;;;30.33;24.67;;;;;7.71;100.00;101999.03;5021358;28;46186;-81
2022/11/30 01:13:58;;;;;;;;;28.00;25.00;;;;;7.71;100.00;101999.03;5019286;28;45436;-81
2022/11/30 01:16:27;;;;;;;;;33.67;26.00;;;;;7.48;100.00;102007.75;5024421;28;46411;-81
2022/11/30 01:18:53;;;;;;;;;29.67;24.00;;;;;7.37;100.00;101983.25;5019565;28;44865;-81
2022/11/30 01:21:22;;;;;;;;;27.00;23.00;;;;;7.55;100.00;102009.09;5013873;28;45404;-80
2022/11/30 01:23:48;;;;;;;;;31.00;24.00;;;;;7.49;100.00;101997.81;5014765;28;45428;-81
2022/11/30 01:26:14;;;;;;;;;26.67;20.67;;;;;7.39;100.00;101993.00;5011599;28;45340;-81
2022/11/30 01:28:40;;;;;;;;;30.00;23.33;;;;;7.49;100.00;102001.41;5009217;28;45278;-80
2022/11/30 01:31:08;;;;;;;;;26.67;23.67;;;;;7.48;100.00;102005.06;5024298;28;45521;-81
2022/11/30 01:33:34;;;;;;;;;25.00;23.67;;;;;7.43;100.00;102004.50;5010985;28;45541;-81
2022/11/30 01:36:03;;;;;;;;;26.67;24.67;;;;;7.44;100.00;102000.81;5019049;28;48275;-80
2022/11/30 01:38:40;;;;;;;;;30.33;22.33;;;;;7.50;100.00;102000.44;5017723;28;45380;-81
2022/11/30 01:41:06;;;;;;;;;29.67;23.33;;;;;7.54;100.00;102003.78;5019160;28;45236;-81
2022/11/30 01:43:36;;;;;;;;;28.33;23.67;;;;;7.54;100.00;102004.66;5015788;28;45284;-80
2022/11/30 01:46:02;;;;;;;;;27.33;23.00;;;;;7.53;100.00;102002.91;5018425;28;47284;-80
2022/11/30 01:48:28;;;;;;;;;18.33;9.00;;;;;7.42;100.00;102008.16;5007412;28;45518;-81
2022/11/30 01:50:55;;;;;;;;;28.67;23.33;;;;;7.21;100.00;101987.91;5018518;28;44724;-81
2022/11/30 01:53:22;;;;;;;;;22.33;19.67;;;;;7.30;100.00;101992.72;5018348;28;45249;-80
2022/11/30 01:55:48;;;;;;;;;22.67;19.67;;;;;7.40;100.00;102005.53;5022349;28;46187;-81
2022/11/30 01:58:26;;;;;;;;;20.67;19.00;;;;;7.45;100.00;102001.69;5015785;28;45426;-80
2022/11/30 02:00:51;;;;;;;;;23.00;21.67;;;;;7.47;100.00;102006.03;5021848;28;45415;-80
2022/11/30 02:03:55;;;;;;;;;27.33;19.67;;;;;7.50;100.00;101995.03;5008346;28;45531;-81
2022/11/30 02:06:23;;;;;;;;;19.33;16.33;;;;;7.54;100.00;102011.91;4985630;28;48095;-80
2022/11/30 02:08:49;;;;;;;;;23.33;18.67;;;;;7.42;100.00;101989.22;5009995;28;45395;-81
2022/11/30 02:11:15;;;;;;;;;14.33;11.00;;;;;7.42;100.00;101998.22;5021877;28;45281;-80
2022/11/30 02:14:16;;;;;;;;;21.33;16.33;;;;;7.42;100.00;102006.31;5013549;28;45676;-81
2022/11/30 02:16:55;;;;;;;;;22.33;19.67;;;;;7.41;100.00;102006.41;5012032;28;45458;-81
2022/11/30 02:19:49;;;;;;;;;21.33;18.67;;;;;7.42;100.00;102000.06;5013671;28;45632;-81
2022/11/30 02:22:26;;;;;;;;;17.67;16.00;;;;;7.46;100.00;102008.81;5017004;28;45540;-81
2022/11/30 02:25:24;;;;;;;;;19.00;17.00;;;;;7.45;100.00;101999.88;5019017;28;45544;-81
2022/11/30 02:28:03;;;;;;;;;21.33;17.67;;;;;7.48;100.00;102002.34;5002741;28;48060;-80
2022/11/30 02:30:35;;;;;;;;;25.33;19.00;;;;;7.38;100.00;101990.38;5010754;28;45414;-81
2022/11/30 02:33:12;;;;;;;;;16.67;14.00;;;;;7.36;100.00;101995.03;5006850;28;45462;-80
2022/11/30 02:35:41;;;;;;;;;18.00;14.00;;;;;7.46;100.00;102011.53;5015822;28;45462;-81
2022/11/30 02:38:07;;;;;;;;;20.00;17.00;;;;;7.42;100.00;102018.97;5017251;28;47966;-80
2022/11/30 02:40:33;;;;;;;;;18.33;15.67;;;;;7.27;100.00;101987.50;5021975;28;45421;-80
2022/11/30 02:43:02;;;;;;;;;23.67;20.33;;;;;7.38;100.00;102006.59;5013160;28;45475;-80
2022/11/30 02:45:38;;;;;;;;;21.00;19.33;;;;;7.33;100.00;102008.72;5014869;28;45341;-81
2022/11/30 02:48:08;;;;;;;;;23.67;22.00;;;;;7.23;100.00;101994.09;5015762;28;47182;-81
2022/11/30 02:50:46;;;;;;;;;23.00;18.00;;;;;7.18;100.00;101978.13;5019148;28;45444;-81
2022/11/30 02:53:12;;;;;;;;;23.67;20.67;;;;;7.31;100.00;101999.84;5015962;28;45458;-81
2022/11/30 02:55:38;;;;;;;;;23.00;17.00;;;;;7.22;100.00;101989.63;5021421;28;45262;-80
2022/11/30 02:58:04;;;;;;;;;22.00;18.67;;;;;7.19;100.00;101990.69;5007560;28;45550;-80
2022/11/30 03:00:29;;;;;;;;;17.67;16.67;;;;;7.23;100.00;101991.38;5021925;28;45334;-80
2022/11/30 03:02:55;;;;;;;;;18.33;16.33;;;;;7.30;100.00;102009.81;5010925;28;45406;-80
2022/11/30 03:05:20;;;;;;;;;17.67;17.00;;;;;7.34;100.00;102007.78;5015485;28;45570;-81
2022/11/30 03:07:45;;;;;;;;;22.33;18.00;;;;;7.36;100.00;102008.56;5018623;28;48291;-80
2022/11/30 03:10:11;;;;;;;;;20.33;16.67;;;;;7.30;100.00;101998.13;5013979;28;45383;-80
2022/11/30 03:12:36;;;;;;;;;19.67;16.67;;;;;7.18;100.00;101986.25;5018613;28;45385;-80
2022/11/30 03:15:03;;;;;;;;;21.33;18.33;;;;;7.22;100.00;102006.72;5008616;28;45478;-80
2022/11/30 03:17:28;;;;;;;;;19.00;16.67;;;;;7.20;100.00;102005.94;5016239;28;46262;-80
2022/11/30 03:19:54;;;;;;;;;17.00;14.67;;;;;7.22;100.00;102005.84;5009670;28;45469;-81
2022/11/30 03:22:19;;;;;;;;;17.00;12.00;;;;;7.30;100.00;102022.47;5014928;28;45402;-80
2022/11/30 03:24:44;;;;;;;;;14.00;12.33;;;;;7.19;100.00;101997.94;5018068;28;45533;-80
2022/11/30 03:27:09;;;;;;;;;18.33;15.00;;;;;7.20;100.00;102005.06;5025303;28;46859;-80
2022/11/30 03:29:35;;;;;;;;;15.33;12.00;;;;;7.24;100.00;102009.31;5018800;28;45319;-81
2022/11/30 03:32:00;;;;;;;;;26.00;13.67;;;;;7.23;100.00;102013.00;5009078;28;45512;-80
2022/11/30 03:34:27;;;;;;;;;15.00;11.67;;;;;7.07;100.00;101990.59;5011097;28;45541;-80
2022/11/30 03:36:53;;;;;;;;;20.00;16.67;;;;;7.17;100.00;102005.25;5007343;28;47167;-80
2022/11/30 03:39:18;;;;;;;;;19.00;13.33;;;;;7.23;100.00;102013.00;5005599;28;45852;-80
2022/11/30 03:41:44;;;;;;;;;14.00;12.00;;;;;7.24;100.00;102025.53;5004589;28;45446;-80
2022/11/30 03:44:09;;;;;;;;;14.00;11.00;;;;;7.23;100.00;102023.81;5012651;28;45498;-80
2022/11/30 03:46:34;;;;;;;;;10.33;8.33;;;;;7.21;100.00;102032.00;5017154;28;47998;-81
2022/11/30 03:49:00;;;;;;;;;8.67;7.00;;;;;7.15;100.00;102021.59;5016117;28;45277;-80
2022/11/30 03:51:25;;;;;;;;;13.33;7.33;;;;;7.13;100.00;102044.25;5018298;28;45372;-80
2022/11/30 03:53:50;;;;;;;;;12.00;8.33;;;;;7.13;100.00;102049.66;5010488;28;45408;-80
2022/11/30 03:56:16;;;;;;;;;10.67;9.00;;;;;6.99;100.00;102034.31;5019055;28;47120;-81
2022/11/30 03:58:41;;;;;;;;;10.33;10.33;;;;;7.02;100.00;102040.38;5011084;28;45739;-79
2022/11/30 04:01:10;;;;;;;;;9.00;8.00;;;;;7.07;100.00;102050.03;5007251;28;45440;-80
2022/11/30 04:03:36;;;;;;;;;11.33;8.33;;;;;7.04;100.00;102057.38;5008362;28;45348;-80
2022/11/30 04:06:03;;;;;;;;;8.33;8.33;;;;;6.96;100.00;102053.38;5015169;28;47130;-80
2022/11/30 04:08:29;;;;;;;;;13.00;7.00;;;;;6.91;100.00;102061.78;5005760;28;46037;-80
2022/11/30 04:10:56;;;;;;;;;8.00;8.00;;;;;6.85;100.00;102051.34;5005875;28;45253;-81
2022/11/30 04:13:23;;;;;;;;;10.00;9.33;;;;;6.66;100.00;102034.50;5012914;28;45324;-80
2022/11/30 04:15:49;;;;;;;;;11.00;8.33;;;;;6.76;100.00;102057.31;5013401;28;46477;-80
2022/11/30 04:18:16;;;;;;;;;8.33;8.00;;;;;6.79;100.00;102076.03;5016030;28;45452;-81
2022/11/30 04:20:42;;;;;;;;;8.33;8.00;;;;;6.62;100.00;102063.53;5012010;28;45511;-82
2022/11/30 04:23:08;;;;;;;;;7.33;7.33;;;;;6.60;100.00;102075.38;5017495;28;45513;-80
2022/11/30 04:25:34;;;;;;;;;6.33;6.00;;;;;6.58;100.00;102075.47;5013364;28;48421;-80
2022/11/30 04:27:59;;;;;;;;;8.67;8.67;;;;;6.50;100.00;102079.59;5027104;28;45432;-80
2022/11/30 04:30:25;;;;;;;;;16.00;10.33;;;;;6.45;100.00;102077.16;5015077;28;45486;-82
2022/11/30 04:32:50;;;;;;;;;14.33;9.33;;;;;6.32;100.00;102072.56;5011903;28;45446;-80
2022/11/30 04:35:15;;;;;;;;;11.00;8.33;;;;;6.40;100.00;102072.97;5008756;28;47003;-80
2022/11/30 04:37:41;;;;;;;;;11.67;11.33;;;;;6.47;100.00;102079.75;5006140;28;45404;-80
2022/11/30 04:40:07;;;;;;;;;13.00;9.67;;;;;6.31;100.00;102065.41;5008378;28;45784;-80
2022/11/30 04:42:32;;;;;;;;;14.67;12.00;;;;;6.31;100.00;102087.88;5009045;28;45636;-80
2022/11/30 04:44:57;;;;;;;;;11.33;11.00;;;;;6.16;100.00;102073.44;5013823;28;46327;-81
2022/11/30 04:47:23;;;;;;;;;11.33;11.00;;;;;6.04;100.00;102059.78;5016508;28;45486;-81
2022/11/30 04:49:48;;;;;;;;;10.67;10.00;;;;;6.21;100.00;102084.81;5012576;28;45136;-81
2022/11/30 04:52:14;;;;;;;;;14.67;12.00;;;;;6.30;100.00;102096.06;5010666;28;46275;-81
2022/11/30 04:54:39;;;;;;;;;16.50;10.50;;;;;6.37;100.00;102083.94;5014934;28;47659;-81
2022/11/30 04:57:05;;;;;;;;;12.33;11.00;;;;;6.35;100.00;102077.78;5011426;28;45384;-79
2022/11/30 04:59:31;;;;;;;;;12.00;9.00;;;;;6.30;100.00;102074.47;5015064;28;45400;-80
2022/11/30 05:01:56;;;;;;;;;11.67;10.33;;;;;6.25;100.00;102072.91;5007515;28;45399;-79
2022/11/30 05:04:22;;;;;;;;;17.67;12.33;;;;;6.37;100.00;102095.63;5016641;28;48012;-79
2022/11/30 05:06:47;;;;;;;;;16.67;12.33;;;;;6.35;100.00;102088.59;5014440;28;45366;-79
2022/11/30 05:09:12;;;;;;;;;9.67;9.67;;;;;6.22;100.00;102070.38;5012162;28;45456;-79
2022/11/30 05:11:38;;;;;;;;;8.00;8.00;;;;;6.36;100.00;102082.19;5017738;28;45437;-80
2022/11/30 05:14:04;;;;;;;;;7.67;6.67;;;;;6.21;100.00;102065.94;5012387;28;45567;-81
2022/11/30 05:16:29;;;;;;;;;7.00;7.00;;;;;6.28;100.00;102073.72;5015589;28;45334;-80
2022/11/30 05:18:54;;;;;;;;;11.00;11.00;;;;;6.37;100.00;102083.94;5013813;28;45341;-81
2022/11/30 05:21:20;;;;;;;;;13.67;11.33;;;;;6.16;100.00;102061.78;5015232;28;45576;-80
2022/11/30 05:23:47;;;;;;;;;11.00;10.00;;;;;6.21;100.00;102071.34;5012489;28;46525;-79
2022/11/30 05:26:16;;;;;;;;;13.33;12.00;;;;;6.15;100.00;102071.69;5019866;28;45472;-81
2022/11/30 05:28:41;;;;;;;;;17.33;15.00;;;;;6.14;100.00;102066.38;5015647;28;45714;-80
2022/11/30 05:31:06;;;;;;;;;11.67;11.67;;;;;6.23;100.00;102080.22;5021120;28;45359;-80
2022/11/30 05:33:32;;;;;;;;;15.67;12.00;;;;;6.25;100.00;102074.75;5011284;28;46900;-80
2022/11/30 05:35:58;;;;;;;;;16.33;15.00;;;;;6.06;100.00;102049.78;5015761;28;45402;-80
2022/11/30 05:38:23;;;;;;;;;16.33;14.33;;;;;6.23;100.00;102061.34;5028787;28;45430;-80
2022/11/30 05:40:49;;;;;;;;;15.00;13.00;;;;;6.27;100.00;102056.66;5009575;28;45367;-80
2022/11/30 05:43:14;;;;;;;;;23.00;13.33;;;;;6.43;100.00;102070.13;5014111;28;45447;-78
2022/11/30 05:45:40;;;;;;;;;12.00;11.00;;;;;6.24;100.00;102044.19;5018162;28;45670;-79
2022/11/30 05:48:05;;;;;;;;;14.33;12.33;;;;;6.37;100.00;102065.91;5016259;28;45600;-79
2022/11/30 05:50:31;;;;;;;;;15.00;11.33;;;;;6.46;100.00;102068.09;5021913;28;45376;-79
2022/11/30 05:52:59;;;;;;;;;19.67;15.33;;;;;6.48;100.00;102057.22;5014312;28;45499;-75
2022/11/30 05:55:26;;;;;;;;;10.33;10.33;;;;;6.59;100.00;102070.94;5020023;28;45383;-75
2022/11/30 05:57:52;;;;;;;;;15.67;14.00;;;;;6.62;100.00;102070.75;5011256;28;45284;-75
2022/11/30 06:00:19;;;;;;;;;17.00;16.00;;;;;6.60;100.00;102067.28;5011935;28;45411;-76
2022/11/30 06:02:45;;;;;;;;;12.00;11.00;;;;;6.58;100.00;102051.16;5017544;28;47063;-74
2022/11/30 06:05:10;;;;;;;;;14.00;11.67;;;;;6.65;100.00;102054.38;5013643;28;45215;-75
2022/11/30 06:07:36;;;;;;;;;21.00;17.33;;;;;6.71;100.00;102059.44;5014832;28;45399;-76
2022/11/30 06:10:01;;;;;;;;;21.67;16.67;;;;;6.73;100.00;102070.97;5015465;28;45216;-74
2022/11/30 06:12:26;;;;;;;;;19.33;19.00;;;;;6.75;100.00;102060.97;5019992;28;45635;-75
2022/11/30 06:14:52;;;;;;;;;20.00;18.00;;;;;6.60;100.00;102061.88;5015315;28;45553;-76
2022/11/30 06:17:17;;;;;;;;;17.00;14.33;;;;;6.67;100.00;102067.78;5018758;28;45664;-75
2022/11/30 06:19:43;;;;;;;;;19.67;13.00;;;;;6.59;100.00;102065.53;5016293;28;45775;-76
2022/11/30 06:22:08;;;;;;;;;13.00;13.00;;;;;6.54;100.00;102046.03;5019215;28;46250;-75
2022/11/30 06:24:33;;;;;;;;;17.67;16.67;;;;;6.70;100.00;102051.41;5010442;28;45394;-76
2022/11/30 06:26:58;;;;;;;;;17.33;16.33;;;;;6.72;100.00;102044.94;5004850;28;45429;-75
2022/11/30 06:29:24;;;;;;;;;24.33;18.33;;;;;6.63;100.00;102054.47;5013356;28;45418;-77
2022/11/30 06:31:49;;;;;;;;;27.00;20.00;;;;;6.62;100.00;102049.16;5015129;28;45442;-75
2022/11/30 06:34:14;;;;;;;;;18.67;12.67;;;;;6.70;100.00;102059.50;5011371;28;45386;-76
2022/11/30 06:36:40;;;;;;;;;27.67;19.00;;;;;6.68;100.00;102062.28;5013692;28;45558;-75
2022/11/30 06:39:05;;;;;;;;;14.67;14.67;;;;;6.57;100.00;102071.06;5015214;28;45422;-75
2022/11/30 06:41:31;;;;;;;;;24.33;17.67;;;;;6.50;100.00;102060.69;5004439;28;45791;-77
2022/11/30 06:43:56;;;;;;;;;19.33;16.67;;;;;6.68;100.00;102067.69;5012631;28;45457;-73
2022/11/30 06:46:22;;;;;;;;;26.67;20.67;;;;;6.70;100.00;102063.09;5016773;28;45315;-76
2022/11/30 06:48:49;;;;;;;;;22.67;20.33;;;;;6.76;100.00;102078.91;5003982;28;45406;-75
2022/11/30 06:51:15;;;;;;;;;25.67;19.67;;;;;6.77;100.00;102075.25;5011946;28;47736;-78
2022/11/30 06:53:41;;;;;;;;;28.33;25.00;;;;;6.79;100.00;102084.16;5008211;28;45407;-73
2022/11/30 06:56:08;;;;;;;;;27.67;23.00;;;;;6.78;100.00;102081.53;5018369;28;45227;-75
2022/11/30 06:58:33;;;;;;;;;18.33;15.33;;;;;6.72;100.00;102071.09;5004650;28;45159;-76
2022/11/30 07:00:58;;;;;;;;;22.00;19.33;;;;;6.76;100.00;102083.44;5013289;28;47832;-74
2022/11/30 07:03:24;;;;;;;;;25.00;18.00;;;;;6.81;100.00;102086.72;5004181;28;45591;-75
2022/11/30 07:05:49;;;;;;;;;22.67;18.00;;;;;6.79;100.00;102083.28;5005547;28;45431;-75
2022/11/30 07:08:16;;;;;;;;;21.67;19.33;;;;;6.87;100.00;102091.75;5014743;28;45389;-75
2022/11/30 07:10:43;;;;;;;;;17.33;13.33;;;;;6.85;100.00;102094.56;5016909;28;46410;-74
2022/11/30 07:13:15;;;;;;;;;17.33;14.33;;;;;6.88;100.00;102091.69;5014316;28;45424;-74
2022/11/30 07:15:41;;;;;;;;;18.00;17.00;;;;;6.77;100.00;102096.00;5010101;28;45494;-75
2022/11/30 07:18:07;;;;;;;;;17.00;11.67;;;;;6.81;100.00;102097.53;5007350;28;45447;-74
2022/11/30 07:20:33;;;;;;;;;24.33;20.00;;;;;6.85;100.00;102099.97;5011440;28;46375;-74
2022/11/30 07:28:27;;;;;;;;;21.33;21.00;;;;;6.84;100.00;102103.63;5008649;28;45508;-76
2022/11/30 07:30:52;;;;;;;;;22.33;20.00;;;;;6.89;100.00;102106.06;5008392;28;46393;-76
2022/11/30 07:33:18;;;;;;;;;25.00;22.00;;;;;6.85;100.00;102094.56;5005148;28;45432;-74
2022/11/30 07:35:43;;;;;;;;;29.00;21.33;;;;;6.97;100.00;102114.56;5011242;28;44821;-75
2022/11/30 07:38:08;;;;;;;;;27.33;24.33;;;;;6.92;100.00;102101.34;5011653;28;45193;-75
2022/11/30 07:40:34;;;;;;;;;24.00;21.00;;;;;7.01;100.00;102119.69;5014474;28;47844;-74
2022/11/30 07:42:59;;;;;;;;;26.00;23.33;;;;;7.03;100.00;102120.47;5008138;28;45409;-75
2022/11/30 07:45:24;;;;;;;;;23.33;18.33;;;;;6.95;100.00;102103.84;5013577;28;45367;-75
2022/11/30 07:47:50;;;;;;;;;22.33;21.33;;;;;7.06;100.00;102123.97;5009271;28;45298;-75
2022/11/30 07:50:15;;;;;;;;;27.67;22.00;;;;;6.93;100.00;102102.22;5017571;28;47452;-74
2022/11/30 07:52:41;;;;;;;;;59.75;43.25;;;;;7.14;100.00;102122.56;5014651;28;45617;-74
2022/11/30 07:55:07;;;;;;;;;28.33;18.67;;;;;7.06;100.00;102123.97;5005886;28;45514;-74
2022/11/30 07:57:32;;;;;;;;;23.67;20.00;;;;;7.10;100.00;102126.38;5004254;28;45290;-75
2022/11/30 07:59:58;;;;;;;;;20.67;17.00;;;;;7.11;100.00;102136.22;5012093;28;46924;-76
2022/11/30 08:02:23;;;;;;;;;25.67;22.00;;;;;7.14;100.00;102138.75;5008058;28;45351;-75
2022/11/30 08:04:49;;;;;;;;;26.00;22.33;;;;;7.06;100.00;102130.25;5008213;28;45295;-75
2022/11/30 08:07:14;;;;;;;;;23.33;19.00;;;;;7.16;100.00;102122.47;5018524;28;45329;-74
2022/11/30 08:09:40;;;;;;;;;15.67;12.67;;;;;7.24;100.00;102139.06;5005823;28;46169;-74
2022/11/30 08:12:05;;;;;;;;;20.00;16.00;;;;;7.20;100.00;102126.69;5019456;28;45358;-74
2022/11/30 08:14:31;;;;;;;;;14.67;14.67;;;;;7.17;100.00;102143.09;5013230;28;45230;-75
2022/11/30 08:16:56;;;;;;;;;21.00;18.67;;;;;7.25;100.00;102138.09;5010452;28;45465;-75
2022/11/30 08:19:21;;;;;;;;;24.33;23.33;;;;;7.18;100.00;102121.38;5008568;28;45647;-76
2022/11/30 08:21:47;;;;;;;;;22.33;18.33;;;;;7.24;100.00;102136.34;5008190;28;45557;-74
2022/11/30 08:24:12;;;;;;;;;24.00;20.67;;;;;7.30;100.00;102139.59;5008639;28;45349;-74
2022/11/30 08:26:38;;;;;;;;;15.33;15.33;;;;;7.34;100.00;102142.94;5008983;28;45453;-75
2022/11/30 08:29:03;;;;;;;;;27.67;22.00;;;;;7.27;100.00;102130.78;5018398;28;47237;-75
2022/11/30 08:31:34;;;;;;;;;24.33;21.33;;;;;7.38;100.00;102158.00;5014873;28;45218;-75
2022/11/30 08:34:02;;;;;;;;;23.00;18.33;;;;;7.33;100.00;102135.81;5007422;28;46850;-75
2022/11/30 08:36:29;;;;;;;;;29.33;22.67;;;;;7.31;100.00;102143.13;5017293;28;45647;-76
2022/11/30 08:38:57;;;;;;;;;22.67;19.67;;;;;7.38;100.00;102149.91;5011476;28;45701;-75
2022/11/30 08:41:23;;;;;;;;;29.00;25.33;;;;;7.45;100.00;102145.88;5015186;28;45374;-75
2022/11/30 08:43:49;;;;;;;;;16.33;16.33;;;;;7.46;100.00;102146.72;5010901;28;45312;-74
2022/11/30 08:46:17;;;;;;;;;23.33;18.33;;;;;7.54;100.00;102142.59;5015842;28;45547;-75
2022/11/30 08:48:42;;;;;;;;;20.33;18.33;;;;;7.58;100.00;102149.56;5011081;28;45888;-75
2022/11/30 08:51:14;;;;;;;;;23.33;15.33;;;;;7.64;100.00;102148.31;5021533;28;45419;-75
2022/11/30 08:53:39;;;;;;;;;25.00;22.33;;;;;7.61;100.00;102149.34;5009664;28;45346;-73
2022/11/30 08:56:07;;;;;;;;;25.67;23.00;;;;;7.54;100.00;102142.59;5020768;28;45296;-74
2022/11/30 08:58:35;;;;;;;;;18.67;14.33;;;;;7.44;100.00;102125.22;5009787;28;46472;-74
2022/11/30 09:01:09;;;;;;;;;31.33;21.67;;;;;7.60;100.00;102138.63;5018723;28;45825;-74
2022/11/30 09:03:35;;;;;;;;;3.00;0.00;;;;;7.76;100.00;102158.34;5008738;28;45381;-75
2022/11/30 09:06:13;;;;;;;;;22.00;18.33;;;;;7.72;100.00;102137.88;5018110;28;45264;-75
2022/11/30 09:08:40;;;;;;;;;27.67;20.67;;;;;7.89;100.00;102155.78;5012836;28;45367;-75
2022/11/30 09:11:26;;;;;;;;;28.33;24.67;;;;;7.94;100.00;102154.50;5018707;28;45360;-74
2022/11/30 09:13:53;;;;;;;;;31.67;25.33;;;;;7.98;100.00;102164.16;5011538;28;45762;-74
2022/11/30 09:16:19;;;;;;;;;25.33;23.67;;;;;8.03;100.00;102161.16;5016705;28;45240;-76
2022/11/30 09:18:46;;;;;;;;;22.33;19.00;;;;;8.05;100.00;102165.50;5014385;28;46598;-76
2022/11/30 09:21:13;;;;;;;;;23.67;21.33;;;;;8.05;100.00;102164.63;5012439;28;45264;-73
2022/11/30 09:23:39;;;;;;;;;24.33;20.00;;;;;8.07;100.00;102168.13;5011674;28;45388;-77
2022/11/30 09:26:08;;;;;;;;;26.33;25.33;;;;;8.10;100.00;102167.94;5012486;28;45553;-75
2022/11/30 09:28:34;;;;;;;;;31.67;25.67;;;;;8.07;100.00;102169.00;5009867;28;45430;-75
2022/11/30 09:31:05;;;;;;;;;29.00;24.33;;;;;7.96;100.00;102158.00;5018174;28;45427;-75
2022/11/30 09:33:32;;;;;;;;;30.33;20.67;;;;;7.86;100.00;102164.94;5013537;28;45480;-75
2022/11/30 09:36:00;;;;;;;;;39.67;30.33;;;;;7.82;100.00;102157.97;5018567;28;45513;-75
2022/11/30 09:38:25;;;;;;;;;29.67;22.33;;;;;8.03;100.00;102169.28;5017876;28;45330;-75
2022/11/30 09:40:55;;;;;;;;;37.67;26.33;;;;;7.97;100.00;102183.19;5020235;28;45348;-75
2022/11/30 09:43:52;;;;;;;;;33.67;26.33;;;;;7.98;100.00;102184.94;5012302;28;45422;-74
2022/11/30 09:46:24;;;;;;;;;29.00;26.00;;;;;8.00;100.00;102174.88;5011260;28;45316;-75
2022/11/30 09:49:03;;;;;;;;;37.67;29.00;;;;;7.96;100.00;102170.66;5012854;28;46856;-75
2022/11/30 09:51:54;;;;;;;;;27.00;23.67;;;;;8.09;100.00;102171.59;5017770;28;45372;-74
2022/11/30 09:54:42;;;;;;;;;25.67;19.67;;;;;8.28;100.00;102169.44;5013350;28;45727;-74
2022/11/30 09:57:32;;;;;;;;;25.00;24.33;;;;;8.42;100.00;102174.88;5021993;28;45379;-73
2022/11/30 10:00:02;;;;;;;;;23.00;21.67;;;;;8.38;100.00;102167.94;5012709;28;45477;-76
2022/11/30 10:02:31;;;;;;;;;26.00;22.67;;;;;8.45;100.00;102179.22;5019741;28;45829;-74
2022/11/30 10:04:58;;;;;;;;;29.67;22.00;;;;;8.35;100.00;102176.22;5011216;28;45404;-75
2022/11/30 10:07:57;;;;;;;;;31.00;27.67;;;;;8.10;100.00;102162.53;5016212;28;45732;-75
2022/11/30 10:10:32;;;;;;;;;32.67;30.33;;;;;8.03;100.00;102172.00;5015139;28;47651;-75
2022/11/30 10:13:26;;;;;;;;;25.67;18.67;;;;;8.24;100.00;102173.34;5034022;28;45841;-75
2022/11/30 10:16:38;;;;;;;;;30.33;25.67;;;;;8.15;100.00;102161.25;5020128;28;45332;-76
2022/11/30 10:19:28;;;;;;;;;31.00;24.67;;;;;8.30;100.00;102170.22;4974125;28;45713;-76
2022/11/30 10:22:02;;;;;;;;;30.67;29.00;;;;;8.45;100.00;102176.50;5009180;28;45604;-75
2022/11/30 10:24:39;;;;;;;;;37.00;30.00;;;;;8.48;100.00;102174.47;5010497;28;45506;-74
2022/11/30 10:27:15;;;;;;;;;24.33;21.00;;;;;8.34;100.00;102171.78;5007170;28;45302;-75
2022/11/30 10:29:42;;;;;;;;;31.00;27.67;;;;;8.08;100.00;102176.16;5014923;28;45352;-76
2022/11/30 10:32:16;;;;;;;;;26.67;25.67;;;;;8.02;100.00;102164.84;5018901;28;45426;-76
2022/11/30 10:34:42;;;;;;;;;41.67;32.00;;;;;8.02;100.00;102156.72;5011886;28;45288;-76
2022/11/30 10:37:23;;;;;;;;;35.67;33.00;;;;;8.08;100.00;102157.19;5017074;28;45748;-75
2022/11/30 10:40:10;;;;;;;;;36.67;27.33;;;;;8.39;100.00;102153.41;5016957;28;45213;-75
2022/11/30 10:43:19;;;;;;;;;27.33;22.00;;;;;8.63;100.00;102150.03;5019289;28;47213;-74
2022/11/30 10:45:48;;;;;;;;;27.33;25.67;;;;;8.74;100.00;102147.50;4972029;28;45514;-75
2022/11/30 10:48:44;;;;;;;;;35.00;27.33;;;;;8.68;100.00;102158.75;5003601;28;45351;-75
2022/11/30 10:51:11;;;;;;;;;44.67;35.00;;;;;8.52;100.00;102148.06;5020484;28;45470;-74
2022/11/30 10:53:37;;;;;;;;;44.00;35.33;;;;;8.40;100.00;102143.47;5010884;28;45537;-75
2022/11/30 10:56:09;;;;;;;;;29.00;23.33;;;;;8.43;100.00;102144.09;5012632;28;45189;-75
2022/11/30 10:58:39;;;;;;;;;29.00;27.00;;;;;8.50;100.00;102150.84;5017239;28;45404;-75
2022/11/30 11:01:08;;;;;;;;;40.67;32.33;;;;;8.39;100.00;102130.88;5015962;28;45334;-76
2022/11/30 11:03:34;;;;;;;;;40.00;32.67;;;;;8.42;100.00;102126.13;5012419;28;47680;-75
2022/11/30 11:06:12;;;;;;;;;34.33;27.33;;;;;8.74;100.00;102144.78;5019930;28;45316;-75
2022/11/30 11:08:41;;;;;;;;;41.00;30.33;;;;;8.77;100.00;102139.16;5014729;28;45343;-75
2022/11/30 11:11:29;;;;;;;;;44.67;32.33;;;;;8.59;100.00;102130.44;5011958;28;45510;-74
2022/11/30 11:14:13;;;;;;;;;20.00;18.00;;;;;8.51;100.00;102141.78;5013872;28;46579;-76
2022/11/30 11:16:50;;;;;;;;;32.33;26.33;;;;;8.73;100.00;102148.47;5009781;28;45299;-74
2022/11/30 11:19:34;;;;;;;;;35.67;28.67;;;;;8.67;100.00;102143.47;5004668;28;45438;-74
2022/11/30 11:22:02;;;;;;;;;38.67;27.67;;;;;8.75;100.00;102132.97;5015094;28;45602;-74